Time;durP1;ratioP1;P1;durP2;ratioP2;P2;SDS_P1;SDS_P2;PMS_P1;PMS_P2;Temp;Humidity;BMP_temperature;BMP_pressure;BME280_temperature;BME280_humidity;BME280_pressure;Samples;Min_cycle;Max_cycle;Signal;HPM_P1;HPM_P2
2022/10/06 00:01:18;;;;;;;11.30;7.10;;;;;;;11.89;73.15;100446.75;106332;1271;97755;-84
2022/10/06 00:03:48;;;;;;;10.50;7.10;;;;;;;11.89;73.10;100448.51;106441;1262;110010;-84
2022/10/06 00:06:18;;;;;;;11.10;7.30;;;;;;;11.88;73.18;100444.86;106364;1271;108484;-83
2022/10/06 00:08:47;;;;;;;11.40;6.90;;;;;;;11.88;73.21;100443.64;106045;1270;139893;-85
2022/10/06 00:11:16;;;;;;;13.30;7.00;;;;;;;11.88;73.25;100437.39;106330;1268;98219;-82
2022/10/06 00:13:46;;;;;;;14.60;6.80;;;;;;;11.87;73.16;100440.73;106267;1268;138724;-84
2022/10/06 00:16:17;;;;;;;12.10;7.30;;;;;;;11.87;73.28;100438.65;106396;1271;110848;-85
2022/10/06 00:18:46;;;;;;;11.50;7.10;;;;;;;11.86;73.33;100436.58;106373;1270;107871;-85
2022/10/06 00:21:15;;;;;;;13.30;7.10;;;;;;;11.86;73.34;100440.41;106069;1271;139899;-82
2022/10/06 00:23:44;;;;;;;14.00;7.10;;;;;;;11.86;73.30;100438.34;106269;1271;98335;-86
2022/10/06 00:26:15;;;;;;;11.70;6.90;;;;;;;11.85;73.37;100441.65;106300;1271;139542;-82
2022/10/06 00:28:45;;;;;;;10.70;6.90;;;;;;;11.85;73.26;100437.48;106450;1268;113429;-83
2022/10/06 00:31:15;;;;;;;12.00;6.90;;;;;;;11.84;73.45;100435.42;106382;1271;107811;-82
2022/10/06 00:33:44;;;;;;;11.80;7.20;;;;;;;11.83;73.41;100438.75;106151;1271;138698;-87
2022/10/06 00:36:14;;;;;;;10.30;6.90;;;;;;;11.83;73.39;100438.74;106422;1271;97925;-85
2022/10/06 00:38:43;;;;;;;11.10;6.90;;;;;;;11.82;73.54;100433.73;106312;1268;140261;-85
2022/10/06 00:41:15;;;;;;;10.10;6.70;;;;;;;11.83;73.48;100432.14;106225;1271;112307;-83
2022/10/06 00:43:48;;;;;;;11.00;7.10;;;;;;;11.82;73.51;100433.02;106166;1271;140007;-83
2022/10/06 00:46:24;;;;;;;12.40;6.60;;;;;;;11.82;73.53;100433.71;106601;1271;107770;-82
2022/10/06 00:49:01;;;;;;;12.10;6.30;;;;;;;11.82;73.52;100432.33;106350;1268;97847;-83
2022/10/06 00:51:32;;;;;;;13.80;6.20;;;;;;;11.83;73.56;100434.58;106216;1271;138526;-81
2022/10/06 00:54:02;;;;;;;13.60;6.80;;;;;;;11.83;73.48;100435.77;106414;1271;112457;-83
2022/10/06 00:56:31;;;;;;;11.50;6.10;;;;;;;11.84;73.71;100434.02;106250;1271;138811;-84
2022/10/06 00:59:00;;;;;;;10.40;6.80;;;;;;;11.85;73.59;100435.21;106332;1271;109100;-83
2022/10/06 01:01:31;;;;;;;12.90;6.00;;;;;;;11.84;73.59;100429.83;106057;1271;139214;-85
2022/10/06 01:04:05;;;;;;;9.70;5.60;;;;;;;11.85;73.52;100432.43;106145;1271;97839;-83
2022/10/06 01:06:44;;;;;;;9.00;6.00;;;;;;;11.86;73.79;100427.52;106257;1271;110732;-86
2022/10/06 01:09:15;;;;;;;13.90;5.40;;;;;;;11.87;73.58;100427.64;106129;1270;138670;-87
2022/10/06 01:11:46;;;;;;;10.10;5.70;;;;;;;11.89;73.76;100424.27;106201;1271;108890;-85
2022/10/06 01:14:19;;;;;;;9.80;5.60;;;;;;;11.91;73.71;100425.60;106187;1271;141100;-84
2022/10/06 01:16:57;;;;;;;7.50;5.20;;;;;;;11.92;73.70;100422.75;106222;1271;97840;-83
2022/10/06 01:19:36;;;;;;;10.50;5.90;;;;;;;11.94;73.81;100419.05;106176;1271;139401;-80
2022/10/06 01:22:07;;;;;;;7.70;6.00;;;;;;;11.94;73.78;100418.16;106311;1271;106770;-83
2022/10/06 01:24:37;;;;;;;8.20;5.40;;;;;;;11.96;73.78;100417.05;106118;1271;107557;-86
2022/10/06 01:27:07;;;;;;;7.70;5.20;;;;;;;11.96;73.81;100417.20;106225;1271;138838;-82
2022/10/06 01:29:37;;;;;;;12.20;5.60;;;;;;;11.97;73.92;100411.25;106217;1271;97723;-86
2022/10/06 01:32:06;;;;;;;8.10;5.60;;;;;;;11.98;73.80;100414.19;106201;1272;138930;-88
2022/10/06 01:34:35;;;;;;;10.60;5.60;;;;;;;11.99;73.75;100412.56;106407;1270;108898;-85
2022/10/06 01:37:04;;;;;;;10.40;5.60;;;;;;;12.00;73.88;100408.02;106173;1271;108928;-84
2022/10/06 01:39:35;;;;;;;10.70;5.70;;;;;;;11.99;73.89;100404.89;106039;1271;140116;-84
2022/10/06 01:42:04;;;;;;;9.80;5.20;;;;;;;12.00;74.03;100405.23;106245;1271;98030;-82
2022/10/06 01:44:33;;;;;;;9.00;5.20;;;;;;;12.00;73.88;100405.92;106270;1270;137428;-88
2022/10/06 01:47:05;;;;;;;11.90;5.60;;;;;;;11.99;73.88;100408.02;106334;1271;108208;-84
2022/10/06 01:49:34;;;;;;;10.10;5.20;;;;;;;12.00;73.92;100408.88;106238;1271;139440;-83
2022/10/06 01:52:04;;;;;;;9.50;5.10;;;;;;;11.99;73.80;100409.44;106167;1271;97820;-86
2022/10/06 01:54:33;;;;;;;9.10;5.70;;;;;;;11.99;73.93;100402.30;106311;1270;97725;-85
2022/10/06 01:57:01;;;;;;;9.50;5.70;;;;;;;11.99;73.97;100402.81;106168;1271;140062;-86
2022/10/06 01:59:30;;;;;;;8.60;5.60;;;;;;;12.00;73.97;100404.17;106261;1271;109171;-86
2022/10/06 02:01:59;;;;;;;9.90;5.60;;;;;;;12.01;74.00;100403.80;106194;1271;138818;-87
2022/10/06 02:04:28;;;;;;;12.00;5.30;;;;;;;12.00;73.84;100405.55;106427;1271;98395;-85
2022/10/06 02:06:56;;;;;;;6.90;5.50;;;;;;;12.01;74.07;100404.31;106263;1271;97696;-85
2022/10/06 02:09:25;;;;;;;8.60;5.40;;;;;;;12.01;74.08;100404.65;106350;1271;140231;-83
2022/10/06 02:11:55;;;;;;;7.20;5.10;;;;;;;12.00;74.07;100405.73;106437;1269;108360;-88
2022/10/06 02:14:24;;;;;;;10.40;5.40;;;;;;;11.99;73.96;100409.77;106258;1271;138666;-85
2022/10/06 02:16:53;;;;;;;12.60;6.00;;;;;;;11.98;74.15;100405.64;106204;1270;97897;-85
2022/10/06 02:19:22;;;;;;;9.40;5.60;;;;;;;11.98;74.07;100407.76;106097;1271;138881;-85
2022/10/06 02:21:51;;;;;;;8.50;5.20;;;;;;;11.96;74.22;100406.60;106198;1271;111411;-85
2022/10/06 02:24:19;;;;;;;11.20;5.60;;;;;;;11.95;74.12;100406.63;106370;1270;109352;-85
2022/10/06 02:26:48;;;;;;;8.50;5.90;;;;;;;11.94;74.36;100411.89;106175;1270;139289;-83
2022/10/06 02:29:17;;;;;;;9.80;5.60;;;;;;;11.92;74.36;100411.80;106328;1271;97834;-85
2022/10/06 02:31:46;;;;;;;11.50;5.10;;;;;;;11.91;74.34;100410.27;106147;1271;138862;-86
2022/10/06 02:34:15;;;;;;;9.50;5.50;;;;;;;11.90;74.43;100414.48;106245;1271;112691;-84
2022/10/06 02:36:44;;;;;;;7.10;5.70;;;;;;;11.89;74.39;100414.36;106351;1271;108880;-85
2022/10/06 02:39:13;;;;;;;7.60;5.60;;;;;;;11.88;74.55;100418.23;106206;1270;138579;-85
2022/10/06 02:41:42;;;;;;;8.10;5.50;;;;;;;11.87;74.60;100417.73;106158;1271;97835;-86
2022/10/06 02:44:11;;;;;;;9.80;5.20;;;;;;;11.87;74.64;100418.44;106174;1270;138777;-86
2022/10/06 02:46:40;;;;;;;10.40;5.70;;;;;;;11.86;74.73;100417.92;106237;1271;111951;-88
2022/10/06 02:49:09;;;;;;;12.80;6.00;;;;;;;11.85;74.73;100417.61;106331;1270;109385;-84
2022/10/06 02:51:38;;;;;;;7.80;5.90;;;;;;;11.84;74.72;100417.63;106205;1270;140513;-86
2022/10/06 02:54:07;;;;;;;11.30;6.20;;;;;;;11.84;74.77;100414.50;106367;1271;97831;-85
2022/10/06 02:56:37;;;;;;;10.60;6.30;;;;;;;11.83;74.75;100418.54;106104;1270;140337;-85
2022/10/06 02:59:06;;;;;;;13.80;6.40;;;;;;;11.82;74.85;100418.58;106359;1270;112744;-86
2022/10/06 03:01:36;;;;;;;13.90;6.70;;;;;;;11.82;74.81;100419.27;106247;1271;138938;-86
2022/10/06 03:04:10;;;;;;;8.10;5.70;;;;;;;11.81;74.99;100423.48;106408;1271;109019;-87
2022/10/06 03:06:41;;;;;;;8.80;5.90;;;;;;;11.80;74.95;100419.33;106214;1271;97973;-87
2022/10/06 03:09:20;;;;;;;12.60;6.30;;;;;;;11.80;74.95;100427.34;106291;1271;138430;-87
2022/10/06 03:11:49;;;;;;;8.00;6.20;;;;;;;11.80;75.11;100425.28;106251;1271;112568;-86
2022/10/06 03:14:23;;;;;;;9.10;5.80;;;;;;;11.79;75.07;100429.83;106079;1271;138798;-87
2022/10/06 03:16:53;;;;;;;9.10;5.40;;;;;;;11.79;75.16;100430.02;106261;1271;108819;-87
2022/10/06 03:19:25;;;;;;;9.00;5.80;;;;;;;11.78;75.12;100428.98;106224;1271;139001;-88
2022/10/06 03:21:54;;;;;;;9.20;5.70;;;;;;;11.77;75.34;100428.30;106201;1272;98093;-88
2022/10/06 03:24:27;;;;;;;8.50;5.80;;;;;;;11.76;75.19;100431.98;106351;1271;112527;-87
2022/10/06 03:26:57;;;;;;;11.20;5.80;;;;;;;11.76;75.21;100432.54;106280;1269;139989;-87
2022/10/06 03:29:29;;;;;;;7.50;5.60;;;;;;;11.75;75.26;100433.80;106292;1270;107424;-87
2022/10/06 03:31:58;;;;;;;11.90;6.20;;;;;;;11.74;75.25;100431.54;106089;1270;139396;-86
2022/10/06 03:34:27;;;;;;;7.90;5.00;;;;;;;11.74;75.45;100440.61;106162;1273;97750;-85
2022/10/06 03:36:56;;;;;;;9.80;5.80;;;;;;;11.73;75.50;100445.33;106264;1271;112690;-87
2022/10/06 03:39:26;;;;;;;7.80;5.30;;;;;;;11.75;75.49;100446.50;106043;1271;138606;-87
2022/10/06 03:41:55;;;;;;;8.30;5.60;;;;;;;11.74;75.54;100441.80;106257;1270;107973;-88
2022/10/06 03:44:24;;;;;;;9.80;5.70;;;;;;;11.74;75.58;100440.42;106073;1271;138737;-87
2022/10/06 03:46:53;;;;;;;9.60;5.40;;;;;;;11.75;75.56;100447.71;106234;1271;97841;-88
2022/10/06 03:49:22;;;;;;;11.40;5.30;;;;;;;11.75;75.63;100445.43;106371;1270;139752;-86
2022/10/06 03:51:53;;;;;;;10.90;5.30;;;;;;;11.76;75.67;100450.63;106420;1271;109000;-88
2022/10/06 03:54:24;;;;;;;11.30;5.50;;;;;;;11.75;75.65;100448.73;106397;1270;108929;-87
2022/10/06 03:56:54;;;;;;;9.60;5.20;;;;;;;11.76;75.69;100449.23;106178;1270;138792;-89
2022/10/06 03:59:22;;;;;;;7.30;5.30;;;;;;;11.76;75.79;100450.11;106261;1271;97825;-88
2022/10/06 04:01:54;;;;;;;8.10;5.10;;;;;;;11.77;75.69;100453.92;106046;1271;139131;-87
2022/10/06 04:04:29;;;;;;;8.70;5.30;;;;;;;11.78;75.80;100456.31;106373;1271;108871;-88
2022/10/06 04:07:04;;;;;;;8.70;5.30;;;;;;;11.78;75.87;100457.55;106349;1270;107852;-89
2022/10/06 04:09:33;;;;;;;8.50;5.00;;;;;;;11.79;75.85;100456.48;106229;1270;140261;-88
2022/10/06 04:12:02;;;;;;;12.50;5.60;;;;;;;11.79;75.82;100458.93;106237;1271;97807;-88
2022/10/06 04:14:33;;;;;;;8.20;5.40;;;;;;;11.79;75.84;100455.27;106131;1270;138747;-89
2022/10/06 04:17:03;;;;;;;8.00;5.70;;;;;;;11.79;75.95;100457.70;106262;1270;107380;-88
2022/10/06 04:19:35;;;;;;;7.50;5.60;;;;;;;11.79;75.87;100462.23;106266;1270;139774;-89
2022/10/06 04:22:04;;;;;;;10.80;5.50;;;;;;;11.78;75.91;100467.98;106194;1271;97841;-86
2022/10/06 04:24:34;;;;;;;8.90;5.40;;;;;;;11.78;76.02;100469.90;106317;1270;97738;-89
2022/10/06 04:29:57;;;;;;;10.40;5.90;;;;;;;11.78;75.96;100469.05;106186;1271;108386;-85
2022/10/06 04:32:28;;;;;;;9.60;5.70;;;;;;;11.78;76.05;100470.61;106105;1270;138816;-86
2022/10/06 04:34:57;;;;;;;11.00;5.30;;;;;;;11.77;76.07;100472.20;106231;1271;98295;-87
2022/10/06 04:37:27;;;;;;;9.70;5.30;;;;;;;11.77;75.95;100474.47;106248;1270;140882;-85
2022/10/06 04:39:56;;;;;;;9.10;5.60;;;;;;;11.76;76.05;100477.97;106174;1270;111414;-86
2022/10/06 04:42:27;;;;;;;9.50;5.50;;;;;;;11.76;76.17;100478.33;106165;1270;107800;-85
2022/10/06 04:45:04;;;;;;;12.00;5.30;;;;;;;11.76;76.25;100483.21;106843;1270;138776;-85
2022/10/06 04:47:33;;;;;;;10.40;5.50;;;;;;;11.77;76.20;100484.05;106342;1271;97924;-87
2022/10/06 04:50:03;;;;;;;11.00;6.20;;;;;;;11.77;76.20;100491.54;106210;1270;138955;-86
2022/10/06 04:52:31;;;;;;;13.00;5.80;;;;;;;11.78;76.30;100492.91;106198;1271;112805;-87
2022/10/06 04:55:02;;;;;;;8.60;5.40;;;;;;;11.79;76.41;100491.33;107136;1270;108934;-86
2022/10/06 04:57:31;;;;;;;11.80;5.50;;;;;;;11.80;76.30;100496.88;106161;1270;139308;-85
2022/10/06 05:02:48;;;;;;;9.50;5.70;;;;;;;11.84;76.41;100502.14;106132;1271;139123;-83
2022/10/06 05:05:16;;;;;;;9.80;5.90;;;;;;;11.89;76.39;100505.14;106283;1270;111592;-83
2022/10/06 05:07:46;;;;;;;6.60;5.20;;;;;;;11.95;76.38;100508.55;106156;1271;139735;-83
2022/10/06 05:10:16;;;;;;;14.10;5.70;;;;;;;12.04;76.32;100512.27;106243;1271;107871;-85
2022/10/06 05:12:45;;;;;;;10.20;5.30;;;;;;;12.14;76.15;100518.91;106366;1270;97835;-83
2022/10/06 05:15:14;;;;;;;8.10;5.60;;;;;;;12.24;76.09;100514.55;106112;1271;139583;-87
2022/10/06 05:17:43;;;;;;;11.20;5.80;;;;;;;12.36;75.91;100522.85;106265;1271;112549;-87
2022/10/06 05:20:12;;;;;;;10.20;5.80;;;;;;;12.47;75.53;100526.66;106107;1271;138730;-84
2022/10/06 05:22:41;;;;;;;9.10;5.40;;;;;;;12.58;75.37;100526.76;106346;1270;108034;-85
2022/10/06 05:25:10;;;;;;;10.30;6.00;;;;;;;12.70;75.22;100529.11;106248;1270;98018;-86
2022/10/06 05:27:39;;;;;;;11.30;5.60;;;;;;;12.82;75.00;100525.89;106639;1270;138528;-85
2022/10/06 05:30:11;;;;;;;7.60;5.60;;;;;;;12.94;74.67;100521.77;106406;1268;112530;-83
2022/10/06 05:32:39;;;;;;;11.80;5.50;;;;;;;13.08;74.31;100524.75;106560;1270;140274;-84
2022/10/06 05:35:09;;;;;;;10.70;5.50;;;;;;;13.22;74.12;100527.52;106203;1271;107960;-84
2022/10/06 05:37:38;;;;;;;8.90;5.00;;;;;;;13.43;73.86;100530.77;106059;1270;139496;-87
2022/10/06 05:40:08;;;;;;;12.50;5.30;;;;;;;13.59;73.56;100533.61;106383;1270;96564;-86
2022/10/06 05:42:37;;;;;;;8.50;5.10;;;;;;;13.74;73.02;100536.16;106256;1270;112685;-84
2022/10/06 05:45:09;;;;;;;9.40;5.20;;;;;;;13.88;72.67;100533.31;106122;1270;138708;-84
2022/10/06 05:47:37;;;;;;;9.70;5.30;;;;;;;14.03;72.53;100539.00;106195;1271;108938;-83
2022/10/06 05:50:08;;;;;;;8.10;5.50;;;;;;;14.20;72.12;100543.66;106208;1270;138623;-84
2022/10/06 05:52:37;;;;;;;8.30;5.40;;;;;;;14.37;71.69;100547.13;106290;1270;98465;-85
2022/10/06 05:55:09;;;;;;;11.60;5.10;;;;;;;14.53;71.40;100547.88;106078;1270;111524;-84
2022/10/06 05:57:38;;;;;;;9.30;5.60;;;;;;;14.72;70.92;100560.70;107653;1270;139031;-82
2022/10/06 06:00:09;;;;;;;10.90;5.20;;;;;;;14.88;70.63;100565.77;107719;1269;107806;-83
2022/10/06 06:02:41;;;;;;;9.10;4.50;;;;;;;15.08;70.26;100569.93;107731;1270;140162;-83
2022/10/06 06:05:11;;;;;;;12.40;5.10;;;;;;;15.29;70.02;100572.27;107725;1270;96032;-82
2022/10/06 06:07:40;;;;;;;6.80;4.80;;;;;;;15.56;69.41;100579.95;107748;1270;139013;-81
2022/10/06 06:10:09;;;;;;;11.30;5.10;;;;;;;15.80;68.83;100578.85;107759;1271;108993;-82
2022/10/06 06:12:38;;;;;;;8.60;4.50;;;;;;;16.09;68.11;100579.34;107749;1270;107840;-84
2022/10/06 06:18:13;;;;;;;7.70;4.60;;;;;;;17.14;66.57;100585.52;106350;1270;97711;-82
2022/10/06 06:20:42;;;;;;;7.30;4.70;;;;;;;17.65;65.50;100588.33;106285;1270;138403;-81
2022/10/06 06:23:11;;;;;;;12.90;4.90;;;;;;;18.07;64.15;100592.27;106222;1270;108831;-81
2022/10/06 06:25:41;;;;;;;7.80;4.60;;;;;;;18.51;63.50;100597.11;106003;1271;139453;-81
2022/10/06 06:28:10;;;;;;;8.20;4.70;;;;;;;18.99;62.14;100604.74;106097;1270;97852;-81
2022/10/06 06:30:39;;;;;;;7.90;4.10;;;;;;;19.29;61.00;100608.16;106100;1270;97881;-82
2022/10/06 06:33:09;;;;;;;6.90;4.40;;;;;;;19.61;60.66;100616.45;106061;1270;138427;-85
2022/10/06 06:35:39;;;;;;;8.10;4.50;;;;;;;19.99;60.06;100619.42;107012;1270;107949;-82
2022/10/06 06:38:10;;;;;;;7.30;4.20;;;;;;;20.35;58.88;100618.81;106071;1270;138830;-76
2022/10/06 06:40:41;;;;;;;5.80;4.00;;;;;;;20.64;58.92;100622.70;107071;1270;98088;-83
2022/10/06 06:43:12;;;;;;;8.50;3.60;;;;;;;20.51;58.41;100623.90;107767;1269;96128;-81
2022/10/06 06:46:03;;;;;;;5.90;4.00;;;;;;;19.94;57.84;100633.72;107870;1270;112758;-83
2022/10/06 06:49:03;;;;;;;8.20;4.20;;;;;;;19.20;58.55;100639.23;107029;1270;109030;-80
2022/10/06 06:51:39;;;;;;;5.60;4.10;;;;;;;18.72;59.30;100646.08;106102;1271;138410;-81
2022/10/06 06:54:09;;;;;;;10.70;4.50;;;;;;;18.30;59.77;100651.14;106312;1270;97839;-80
2022/10/06 06:56:44;;;;;;;6.90;4.20;;;;;;;17.92;60.33;100656.64;106039;1270;138942;-81
2022/10/06 06:59:14;;;;;;;7.50;4.10;;;;;;;17.56;60.76;100654.92;106238;1270;113560;-81
2022/10/06 07:01:46;;;;;;;7.90;4.60;;;;;;;17.24;61.54;100658.92;106239;1270;140145;-82
2022/10/06 07:04:18;;;;;;;8.30;4.50;;;;;;;17.01;62.17;100663.68;106957;1270;108841;-83
2022/10/06 07:06:56;;;;;;;9.30;4.90;;;;;;;16.79;62.52;100668.15;107606;1270;96128;-82
2022/10/06 07:09:29;;;;;;;8.40;4.90;;;;;;;16.53;62.97;100675.39;105727;1271;138910;-81
2022/10/06 07:12:14;;;;;;;10.30;5.10;;;;;;;16.33;63.70;100683.93;106068;1270;111334;-81
2022/10/06 07:26:06;;;;;;;9.80;4.60;;;;;;;15.46;65.84;100686.77;105923;1271;112507;-81
2022/10/06 07:28:34;;;;;;;8.10;4.90;;;;;;;15.35;66.23;100685.19;106020;1271;139619;-81
2022/10/06 07:31:05;;;;;;;8.70;4.70;;;;;;;15.30;66.72;100690.34;106193;1270;108933;-83
2022/10/06 07:33:34;;;;;;;8.20;5.10;;;;;;;15.28;66.93;100696.77;106094;1271;140415;-81
2022/10/06 07:36:06;;;;;;;7.10;5.10;;;;;;;15.20;67.22;100698.98;106283;1271;97819;-82
2022/10/06 07:38:36;;;;;;;8.90;5.00;;;;;;;15.15;67.40;100703.27;106293;1271;112003;-83
2022/10/06 07:41:05;;;;;;;10.80;5.10;;;;;;;15.08;67.69;100706.36;106281;1271;108917;-81
2022/10/06 07:43:53;;;;;;;9.10;5.00;;;;;;;15.02;67.99;100705.04;106261;1271;108046;-83
2022/10/06 07:46:23;;;;;;;9.50;5.30;;;;;;;14.96;68.22;100707.75;106163;1271;138838;-84
2022/10/06 07:48:59;;;;;;;;;;;;;;;14.91;68.37;100706.77;107839;1270;95733;-84
2022/10/06 07:51:28;;;;;;;6.40;5.00;;;;;;;14.83;68.54;100702.71;107133;1271;125051;-80
2022/10/06 07:53:58;;;;;;;10.80;5.50;;;;;;;14.76;68.92;100704.95;106248;1270;109159;-84
2022/10/06 07:56:40;;;;;;;6.10;4.80;;;;;;;14.73;69.22;100705.95;106387;1271;141203;-83
2022/10/06 07:59:09;;;;;;;9.10;4.80;;;;;;;14.72;69.30;100703.34;106273;1270;97825;-81
2022/10/06 08:01:39;;;;;;;7.80;5.00;;;;;;;14.74;69.56;100703.64;106200;1270;97960;-83
2022/10/06 08:04:08;;;;;;;9.20;4.60;;;;;;;14.76;69.65;100712.45;106067;1270;138374;-82
2022/10/06 08:06:37;;;;;;;8.30;5.20;;;;;;;14.80;69.72;100715.45;106194;1271;109049;-81
2022/10/06 08:09:06;;;;;;;9.90;5.20;;;;;;;14.83;69.78;100721.79;106072;1271;138705;-81
2022/10/06 08:11:35;;;;;;;9.70;5.40;;;;;;;14.87;69.99;100719.84;106155;1271;97834;-80
2022/10/06 08:14:04;;;;;;;8.60;5.00;;;;;;;14.95;70.08;100724.11;106187;1271;97844;-82
2022/10/06 08:16:32;;;;;;;9.80;5.20;;;;;;;15.08;70.24;100728.77;106025;1271;138355;-80
2022/10/06 08:19:01;;;;;;;6.70;5.40;;;;;;;15.34;70.26;100723.27;106198;1271;109717;-82
2022/10/06 08:21:33;;;;;;;8.30;5.00;;;;;;;15.64;70.02;100726.63;106016;1271;138527;-80
2022/10/06 08:24:02;;;;;;;8.40;5.40;;;;;;;16.05;69.55;100727.90;106074;1271;97865;-82
2022/10/06 08:26:32;;;;;;;7.80;4.90;;;;;;;16.48;68.94;100725.67;106194;1271;98125;-82
2022/10/06 08:29:01;;;;;;;10.70;4.70;;;;;;;17.12;68.41;100722.98;106078;1271;138861;-84
2022/10/06 08:31:31;;;;;;;9.80;4.60;;;;;;;17.61;67.34;100726.56;106240;1271;109783;-82
2022/10/06 08:34:00;;;;;;;6.40;4.10;;;;;;;18.13;66.70;100723.36;106030;1271;140410;-81
2022/10/06 08:36:29;;;;;;;6.00;4.60;;;;;;;19.00;66.00;100723.46;106255;1271;97948;-83
2022/10/06 08:39:01;;;;;;;8.10;4.20;;;;;;;19.85;64.27;100717.25;106110;1271;138037;-80
2022/10/06 08:41:38;;;;;;;9.00;4.50;;;;;;;20.52;63.19;100720.13;106278;1270;112383;-79
2022/10/06 08:44:20;;;;;;;7.30;4.10;;;;;;;21.21;61.33;100719.73;107462;1271;108609;-81
2022/10/06 08:46:56;;;;;;;9.60;3.90;;;;;;;22.00;61.33;100720.90;106133;1270;137886;-80
2022/10/06 08:49:32;;;;;;;5.20;3.70;;;;;;;22.68;58.69;100721.05;106267;1271;97835;-80
2022/10/06 08:52:25;;;;;;;5.50;3.40;;;;;;;23.10;57.69;100730.10;106194;1270;137748;-79
2022/10/06 08:55:06;;;;;;;3.90;3.50;;;;;;;23.50;56.56;100732.48;106291;1270;112429;-80
2022/10/06 08:57:42;;;;;;;6.20;3.90;;;;;;;24.01;55.93;100730.69;106145;1271;137401;-80
2022/10/06 09:00:15;;;;;;;4.50;3.70;;;;;;;24.49;55.27;100735.32;106270;1271;108854;-81
2022/10/06 09:02:52;;;;;;;9.20;3.90;;;;;;;24.90;53.73;100737.48;106242;1265;138152;-82
2022/10/06 09:05:26;;;;;;;5.10;3.70;;;;;;;24.84;52.79;100746.65;106178;1271;97835;-81
2022/10/06 09:08:12;;;;;;;5.40;4.40;;;;;;;24.52;52.21;100750.03;106146;1271;112864;-83
2022/10/06 09:10:49;;;;;;;11.70;4.00;;;;;;;24.08;52.16;100750.23;106082;1270;139497;-83
2022/10/06 09:13:24;;;;;;;5.30;3.60;;;;;;;23.72;52.16;100758.48;106142;1271;108384;-83
2022/10/06 09:15:57;;;;;;;6.90;3.70;;;;;;;23.34;52.74;100770.09;106134;1271;137960;-80
2022/10/06 09:18:33;;;;;;;4.50;3.80;;;;;;;23.00;53.04;100774.48;106237;1271;97825;-83
2022/10/06 09:21:29;;;;;;;6.80;3.90;;;;;;;22.54;53.40;100775.94;106017;1271;137875;-83
2022/10/06 09:24:04;;;;;;;10.50;4.40;;;;;;;22.09;53.68;100772.46;106100;1271;107712;-82
2022/10/06 09:26:34;;;;;;;5.90;4.10;;;;;;;21.79;54.58;100780.14;106156;1271;109260;-81
2022/10/06 09:29:03;;;;;;;8.80;4.60;;;;;;;21.68;54.89;100773.38;106006;1271;138415;-83
2022/10/06 09:31:37;;;;;;;8.60;3.90;;;;;;;21.64;55.44;100778.15;107748;1271;96084;-81
2022/10/06 09:34:17;;;;;;;6.20;3.90;;;;;;;21.74;55.70;100781.34;106430;1271;138285;-82
2022/10/06 09:37:02;;;;;;;980.60;252.60;;;;;;;22.03;55.71;100790.07;106077;1271;108236;-75
2022/10/06 09:39:35;;;;;;;16.60;6.80;;;;;;;22.59;56.06;100784.95;106603;1271;138588;-72
2022/10/06 09:42:11;;;;;;;23.20;6.90;;;;;;;23.15;55.54;100782.04;106165;1271;98644;-71
2022/10/06 09:44:51;;;;;;;7.70;3.80;;;;;;;23.62;54.79;100786.37;106033;1271;139566;-71
2022/10/06 09:47:31;;;;;;;10.90;4.70;;;;;;;24.05;54.02;100785.48;106503;1271;112634;-70
2022/10/06 09:50:19;;;;;;;8.30;4.30;;;;;;;24.40;54.03;100794.61;106033;1272;109148;-70
2022/10/06 09:53:09;;;;;;;9.20;3.90;;;;;;;24.66;53.01;100797.38;105949;1271;138897;-70
2022/10/06 09:55:45;;;;;;;16.20;4.80;;;;;;;24.51;52.07;100802.23;106119;1271;97887;-74
2022/10/06 09:58:21;;;;;;;9.70;3.90;;;;;;;24.18;51.66;100806.25;107639;1270;137913;-73
2022/10/06 10:00:54;;;;;;;9.20;4.30;;;;;;;23.82;51.53;100812.52;106425;1270;111869;-71
2022/10/06 10:03:25;;;;;;;6.80;3.30;;;;;;;23.46;52.07;100811.92;105983;1273;139313;-73
2022/10/06 10:05:54;;;;;;;6.30;3.50;;;;;;;23.39;52.46;100816.73;106095;1273;108797;-71
2022/10/06 10:08:26;;;;;;;7.50;3.40;;;;;;;23.55;53.07;100816.40;106037;1274;97849;-71
2022/10/06 10:14:15;;;;;;;7.90;3.20;;;;;;;24.40;53.06;100824.95;107291;1272;112496;-72
2022/10/06 10:16:45;;;;;;;5.70;3.30;;;;;;;24.79;52.62;100824.59;107466;1273;138647;-72
2022/10/06 10:19:26;;;;;;;6.50;3.30;;;;;;;25.13;51.69;100824.52;106017;1274;108168;-73
2022/10/06 10:21:55;;;;;;;5.20;3.20;;;;;;;25.06;50.85;100822.91;107642;1272;139097;-82
2022/10/06 10:24:46;;;;;;;5.90;3.20;;;;;;;24.90;50.37;100820.27;106806;1272;97873;-81
2022/10/06 10:27:21;;;;;;;5.00;3.00;;;;;;;24.63;50.11;100823.65;106099;1272;139729;-79
2022/10/06 10:30:01;;;;;;;6.40;3.50;;;;;;;24.33;50.30;100825.20;107682;1271;108816;-78
2022/10/06 10:32:44;;;;;;;6.70;3.30;;;;;;;23.97;50.27;100830.17;106530;1273;108817;-79
2022/10/06 10:35:20;;;;;;;5.40;3.00;;;;;;;23.52;50.98;100833.30;106512;1273;97862;-80
2022/10/06 10:37:52;;;;;;;8.20;3.30;;;;;;;23.18;51.43;100832.17;106114;1272;97807;-80
2022/10/06 10:40:36;;;;;;;4.30;3.10;;;;;;;22.86;51.91;100829.21;105990;1272;137928;-80
2022/10/06 10:43:23;;;;;;;6.90;3.50;;;;;;;22.52;52.42;100832.41;106044;1272;109108;-79
2022/10/06 10:45:56;;;;;;;4.60;2.90;;;;;;;22.11;52.55;100836.11;105994;1272;139126;-81
2022/10/06 10:48:30;;;;;;;5.90;3.10;;;;;;;21.71;53.19;100849.89;106135;1271;97852;-79
2022/10/06 10:51:06;;;;;;;10.50;4.00;;;;;;;21.40;53.78;100858.19;105935;1273;139677;-78
2022/10/06 10:53:46;;;;;;;4.10;2.90;;;;;;;21.10;54.41;100857.90;107674;1273;112982;-80
2022/10/06 10:56:18;;;;;;;6.10;2.60;;;;;;;20.81;54.81;100858.71;107722;1273;107866;-80
2022/10/06 10:58:51;;;;;;;9.20;3.30;;;;;;;20.56;55.43;100861.73;106646;1273;138582;-80
2022/10/06 11:01:29;;;;;;;5.30;3.00;;;;;;;20.36;56.11;100860.73;107552;1274;96855;-80
2022/10/06 11:03:59;;;;;;;4.30;3.50;;;;;;;20.16;56.47;100867.94;107587;1272;138650;-80
2022/10/06 11:06:55;;;;;;;6.70;3.20;;;;;;;20.02;57.08;100870.46;106091;1273;111530;-80
2022/10/06 11:09:32;;;;;;;5.30;3.70;;;;;;;19.85;57.52;100865.11;106017;1273;138102;-80
2022/10/06 11:12:17;;;;;;;7.10;3.60;;;;;;;19.72;57.94;100863.21;106109;1271;107857;-81
2022/10/06 11:14:53;;;;;;;6.80;4.20;;;;;;;19.61;58.39;100858.80;105928;1274;139697;-80
2022/10/06 11:17:43;;;;;;;5.80;3.80;;;;;;;19.54;58.71;100866.80;106059;1273;97924;-80
2022/10/06 11:20:37;;;;;;;6.40;4.20;;;;;;;19.50;59.22;100870.52;106122;1273;112544;-82
2022/10/06 11:23:24;;;;;;;5.60;3.70;;;;;;;19.43;59.29;100870.08;106037;1274;108000;-81
2022/10/06 11:26:04;;;;;;;6.80;3.20;;;;;;;19.36;59.70;100873.33;106106;1273;108731;-80
2022/10/06 11:28:41;;;;;;;4.70;3.00;;;;;;;19.30;59.72;100869.59;105973;1273;138560;-81
2022/10/06 11:31:21;;;;;;;5.50;2.90;;;;;;;19.28;59.67;100866.89;106071;1274;97836;-82
2022/10/06 11:33:54;;;;;;;8.10;3.30;;;;;;;19.30;59.80;100873.80;105923;1274;138600;-80
2022/10/06 11:36:36;;;;;;;5.30;2.80;;;;;;;19.39;59.95;100880.57;106151;1273;108868;-80
2022/10/06 11:39:13;;;;;;;6.20;2.80;;;;;;;19.48;59.81;100886.00;105997;1273;138780;-83
2022/10/06 11:41:48;;;;;;;6.20;3.00;;;;;;;19.54;59.62;100892.17;106085;1273;98357;-79
2022/10/06 11:44:27;;;;;;;6.10;3.20;;;;;;;19.55;59.50;100894.39;105953;1273;98266;-81
2022/10/06 11:47:01;;;;;;;3.80;2.80;;;;;;;19.51;59.18;100891.98;106026;1272;138289;-82
2022/10/06 11:49:59;;;;;;;7.10;3.20;;;;;;;19.40;59.37;100891.08;106147;1272;108880;-82
2022/10/06 11:52:45;;;;;;;9.60;3.70;;;;;;;19.27;59.44;100890.75;106036;1272;138593;-82
2022/10/06 11:55:18;;;;;;;9.90;3.60;;;;;;;19.20;59.90;100899.25;106169;1272;97835;-80
2022/10/06 11:58:09;;;;;;;7.20;4.20;;;;;;;19.16;60.11;100901.25;106108;1272;138406;-82